createdAt,value
2019-02-17T00:00:38.829Z,33.83
2019-02-17T00:03:07.390Z,33.27
2019-02-17T00:05:35.899Z,31.90
2019-02-17T00:08:04.627Z,31.40
2019-02-17T00:10:33.278Z,30.60
2019-02-17T00:13:01.857Z,31.90
2019-02-17T00:15:30.440Z,29.97
2019-02-17T00:17:59.007Z,31.83
2019-02-17T00:20:27.594Z,32.27
2019-02-17T00:22:56.156Z,29.50
2019-02-17T00:25:24.742Z,30.03
2019-02-17T00:27:53.315Z,30.80
2019-02-17T00:30:21.892Z,31.37
2019-02-17T00:32:50.456Z,29.90
2019-02-17T00:35:18.972Z,32.07
2019-02-17T00:37:47.538Z,31.20
2019-02-17T00:40:16.029Z,30.80
2019-02-17T00:42:44.916Z,31.10
2019-02-17T00:45:13.482Z,30.43
2019-02-17T00:47:42.071Z,30.60
2019-02-17T00:50:12.432Z,30.00
2019-02-17T00:52:41.006Z,31.03
2019-02-17T00:55:09.641Z,31.07
2019-02-17T00:57:38.226Z,30.67
2019-02-17T01:00:09.930Z,31.03
2019-02-17T01:02:38.445Z,30.90
2019-02-17T01:05:07.249Z,31.90
2019-02-17T01:07:35.834Z,31.03
2019-02-17T01:10:06.538Z,31.77
2019-02-17T01:12:35.135Z,29.73
2019-02-17T01:15:04.172Z,30.57
2019-02-17T01:17:32.746Z,32.80
2019-02-17T01:20:01.239Z,33.47
2019-02-17T01:22:29.838Z,31.90
2019-02-17T01:24:58.330Z,32.47
2019-02-17T01:27:26.931Z,32.20
2019-02-17T01:29:55.506Z,32.33
2019-02-17T01:32:24.082Z,31.63
2019-02-17T01:34:52.739Z,31.70
2019-02-17T01:37:21.316Z,31.33
2019-02-17T01:39:51.897Z,31.63
2019-02-17T01:42:20.768Z,33.30
2019-02-17T01:44:49.327Z,32.40
2019-02-17T01:47:17.983Z,30.33
2019-02-17T01:49:46.554Z,32.20
2019-02-17T01:52:15.078Z,30.67
2019-02-17T01:54:43.638Z,30.87
2019-02-17T01:57:12.273Z,29.17
2019-02-17T01:59:40.785Z,30.00
2019-02-17T02:02:09.374Z,31.00
2019-02-17T02:04:38.002Z,32.30
2019-02-17T02:07:08.488Z,31.23
2019-02-17T02:09:37.050Z,30.87
2019-02-17T02:12:05.693Z,30.07
2019-02-17T02:14:34.210Z,28.90
2019-02-17T02:17:03.111Z,31.20
2019-02-17T02:19:31.673Z,30.50
2019-02-17T02:22:00.256Z,29.83
2019-02-17T02:24:28.822Z,30.10
2019-02-17T02:26:57.390Z,28.53
2019-02-17T02:29:25.897Z,27.77
2019-02-17T02:31:54.469Z,26.83
2019-02-17T02:34:23.055Z,28.80
2019-02-17T02:36:51.617Z,28.47
2019-02-17T02:39:20.210Z,25.07
2019-02-17T02:41:48.781Z,27.40
2019-02-17T02:44:17.438Z,25.67
2019-02-17T02:46:45.937Z,25.87
2019-02-17T02:49:14.518Z,28.63
2019-02-17T02:51:43.095Z,27.67
2019-02-17T02:54:11.677Z,26.33
2019-02-17T02:56:40.161Z,25.93
2019-02-17T02:59:08.737Z,26.07
2019-02-17T03:01:37.229Z,26.50
2019-02-17T03:04:05.817Z,28.00
2019-02-17T03:06:35.945Z,27.20
2019-02-17T03:09:05.658Z,25.50
2019-02-17T03:11:34.217Z,26.80
2019-02-17T03:14:02.872Z,27.43
2019-02-17T03:16:31.369Z,26.60
2019-02-17T03:18:59.941Z,26.07
2019-02-17T03:21:28.510Z,25.60
2019-02-17T03:23:57.102Z,25.80
2019-02-17T03:26:25.586Z,24.83
2019-02-17T03:28:54.174Z,25.67
2019-02-17T03:31:22.760Z,26.00
2019-02-17T03:33:51.352Z,25.87
2019-02-17T03:36:19.931Z,26.03
2019-02-17T03:38:48.522Z,24.20
2019-02-17T03:41:17.087Z,23.73
2019-02-17T03:43:45.665Z,25.70
2019-02-17T03:46:14.252Z,24.20
2019-02-17T03:48:42.835Z,25.00
2019-02-17T03:51:11.467Z,25.70
2019-02-17T03:53:42.057Z,24.30
2019-02-17T03:56:10.564Z,24.80
2019-02-17T03:58:39.150Z,24.83
2019-02-17T04:01:07.713Z,23.67
2019-02-17T04:03:36.302Z,24.03
2019-02-17T04:06:04.865Z,23.17
2019-02-17T04:08:33.477Z,24.27
2019-02-17T04:11:02.039Z,23.53
2019-02-17T04:13:30.603Z,23.23
2019-02-17T04:15:59.188Z,23.43
2019-02-17T04:18:27.766Z,22.57
2019-02-17T04:20:56.341Z,23.43
2019-02-17T04:23:31.283Z,23.77
2019-02-17T04:25:55.632Z,21.60
2019-02-17T04:28:24.263Z,23.10
2019-02-17T04:30:52.842Z,23.30
2019-02-17T04:33:21.419Z,23.13
2019-02-17T04:35:50.091Z,21.47
2019-02-17T04:38:18.653Z,22.50
2019-02-17T04:40:47.166Z,23.53
2019-02-17T04:43:15.785Z,23.23
2019-02-17T04:45:44.429Z,22.37
2019-02-17T04:48:12.999Z,23.03
2019-02-17T04:50:41.590Z,21.97
2019-02-17T04:53:10.280Z,22.20
2019-02-17T04:55:38.866Z,22.37
2019-02-17T04:58:07.438Z,24.43
2019-02-17T05:00:40.286Z,23.33
2019-02-17T05:03:06.312Z,24.73
2019-02-17T05:05:34.904Z,22.47
2019-02-17T05:08:03.575Z,24.87
2019-02-17T05:10:32.234Z,23.63
2019-02-17T05:13:00.797Z,24.27
2019-02-17T05:15:29.313Z,23.90
2019-02-17T05:17:57.823Z,24.13
2019-02-17T05:20:26.403Z,23.77
2019-02-17T05:22:54.964Z,23.73
2019-02-17T05:25:23.550Z,24.20
2019-02-17T05:27:52.134Z,23.90
2019-02-17T05:30:20.794Z,23.13
2019-02-17T05:32:49.355Z,22.23
2019-02-17T05:35:17.866Z,23.53
2019-02-17T05:37:46.451Z,24.37
2019-02-17T05:40:15.038Z,23.83
2019-02-17T05:42:43.598Z,23.87
2019-02-17T05:45:12.184Z,25.23
2019-02-17T05:47:40.761Z,25.77
2019-02-17T05:50:09.521Z,23.73
2019-02-17T05:52:38.081Z,23.60
2019-02-17T05:55:07.142Z,24.73
2019-02-17T05:57:35.711Z,23.83
2019-02-17T06:00:06.317Z,23.30
2019-02-17T06:02:34.989Z,23.13
2019-02-17T06:05:03.708Z,23.97
2019-02-17T06:07:32.234Z,24.27
2019-02-17T06:10:00.825Z,24.00
2019-02-17T06:12:29.388Z,24.53
2019-02-17T06:14:57.962Z,23.90
2019-02-17T06:17:26.563Z,22.47
2019-02-17T06:19:55.199Z,22.00
2019-02-17T06:22:23.782Z,21.93
2019-02-17T06:24:52.282Z,23.77
2019-02-17T06:27:20.797Z,23.50
2019-02-17T06:29:49.368Z,23.07
2019-02-17T06:32:17.950Z,22.97
2019-02-17T06:34:46.530Z,23.63
2019-02-17T06:37:15.259Z,23.30
2019-02-17T06:39:43.825Z,23.63
2019-02-17T06:42:12.442Z,23.37
2019-02-17T06:44:41.026Z,23.27
2019-02-17T06:47:11.174Z,22.90
2019-02-17T06:49:39.750Z,23.97
2019-02-17T06:52:08.261Z,25.03
2019-02-17T06:54:36.762Z,23.90
2019-02-17T06:57:06.993Z,23.73
2019-02-17T06:59:35.646Z,23.47
2019-02-17T07:02:04.227Z,23.77
2019-02-17T07:04:40.118Z,22.67
2019-02-17T07:07:08.794Z,24.27
2019-02-17T07:09:37.361Z,24.20
2019-02-17T07:12:05.937Z,23.33
2019-02-17T07:14:34.434Z,21.93
2019-02-17T07:17:03.017Z,22.50
2019-02-17T07:19:31.519Z,22.87
2019-02-17T07:22:00.093Z,24.43
2019-02-17T07:24:28.673Z,23.67
2019-02-17T07:26:57.271Z,25.00
2019-02-17T07:29:25.839Z,23.27
2019-02-17T07:31:54.490Z,23.10
2019-02-17T07:34:23.058Z,25.23
2019-02-17T07:36:51.765Z,24.47
2019-02-17T07:39:20.377Z,24.63
2019-02-17T07:41:49.103Z,24.33
2019-02-17T07:44:17.725Z,24.47
2019-02-17T07:46:46.430Z,24.53
2019-02-17T07:49:15.098Z,23.90
2019-02-17T07:51:43.684Z,22.90
2019-02-17T07:54:12.261Z,23.60
2019-02-17T07:56:40.829Z,23.33
2019-02-17T07:59:09.520Z,25.23
2019-02-17T08:01:44.953Z,26.17
2019-02-17T08:04:08.314Z,26.07
2019-02-17T08:06:36.871Z,24.57
2019-02-17T08:09:06.288Z,24.03
2019-02-17T08:11:34.777Z,24.23
2019-02-17T08:14:03.352Z,24.47
2019-02-17T08:16:31.848Z,22.77
2019-02-17T08:19:00.421Z,24.03
2019-02-17T08:21:28.985Z,22.23
2019-02-17T08:23:57.602Z,21.07
2019-02-17T08:26:28.474Z,21.67
2019-02-17T08:28:57.083Z,21.23
2019-02-17T08:31:25.645Z,20.90
2019-02-17T08:33:54.234Z,22.07
2019-02-17T08:36:22.813Z,22.53
2019-02-17T08:38:51.420Z,21.60
2019-02-17T08:41:19.982Z,21.17
2019-02-17T08:43:48.570Z,21.00
2019-02-17T08:46:17.134Z,19.70
2019-02-17T08:48:45.641Z,19.63
2019-02-17T08:51:14.146Z,19.50
2019-02-17T08:53:42.737Z,19.40
2019-02-17T08:56:11.297Z,19.47
2019-02-17T08:58:39.906Z,16.93
2019-02-17T09:01:08.458Z,18.07
2019-02-17T09:03:37.042Z,17.23
2019-02-17T09:06:05.602Z,15.97
2019-02-17T09:08:34.175Z,18.27
2019-02-17T09:11:02.754Z,16.60
2019-02-17T09:13:31.330Z,17.10
2019-02-17T09:15:59.922Z,17.67
2019-02-17T09:18:28.493Z,16.17
2019-02-17T09:20:57.105Z,16.77
2019-02-17T09:23:25.678Z,16.33
2019-02-17T09:25:54.262Z,17.27
2019-02-17T09:28:22.827Z,17.20
2019-02-17T09:30:51.419Z,16.70
2019-02-17T09:33:20.025Z,16.97
2019-02-17T09:35:48.562Z,15.57
2019-02-17T09:38:17.286Z,16.20
2019-02-17T09:40:45.818Z,16.40
2019-02-17T09:43:14.389Z,16.13
2019-02-17T09:45:42.975Z,16.73
2019-02-17T09:48:11.629Z,16.43
2019-02-17T09:50:40.208Z,16.80
2019-02-17T09:53:08.698Z,16.10
2019-02-17T09:55:37.292Z,16.87
2019-02-17T09:58:05.847Z,16.33
2019-02-17T10:00:34.483Z,15.63
2019-02-17T10:03:03.137Z,16.33
2019-02-17T10:05:31.721Z,16.73
2019-02-17T10:08:00.289Z,15.83
2019-02-17T10:10:28.881Z,16.03
2019-02-17T10:12:57.366Z,14.73
2019-02-17T10:15:26.438Z,14.40
2019-02-17T10:17:55.348Z,14.63
2019-02-17T10:20:24.591Z,15.60
2019-02-17T10:22:53.201Z,16.30
2019-02-17T10:25:22.029Z,16.37
2019-02-17T10:27:50.818Z,16.23
2019-02-17T10:30:19.493Z,15.47
2019-02-17T10:32:47.985Z,15.60
2019-02-17T10:35:16.504Z,15.73
2019-02-17T10:37:45.085Z,16.33
2019-02-17T10:40:16.681Z,14.40
2019-02-17T10:42:45.253Z,15.53
2019-02-17T10:45:14.098Z,15.70
2019-02-17T10:47:42.748Z,15.90
2019-02-17T10:50:12.570Z,15.10
2019-02-17T10:52:41.226Z,24.80
2019-02-17T10:55:11.757Z,20.00
2019-02-17T10:57:41.539Z,17.40
2019-02-17T11:00:15.050Z,17.33
2019-02-17T11:02:47.539Z,16.17
2019-02-17T11:05:15.468Z,16.70
2019-02-17T11:07:44.034Z,16.77
2019-02-17T11:10:13.992Z,16.63
2019-02-17T11:12:42.682Z,15.53
2019-02-17T11:15:14.366Z,16.90
2019-02-17T11:17:42.885Z,15.53
2019-02-17T11:20:12.123Z,16.57
2019-02-17T11:22:40.939Z,15.97
2019-02-17T11:25:11.301Z,17.50
2019-02-17T11:27:39.885Z,16.13
2019-02-17T11:30:21.828Z,16.80
2019-02-17T11:32:57.891Z,16.90
2019-02-17T11:35:22.040Z,16.40
2019-02-17T11:37:50.626Z,17.53
2019-02-17T11:40:19.203Z,16.00
2019-02-17T11:42:48.024Z,16.30
2019-02-17T11:45:18.509Z,16.83
2019-02-17T11:47:47.097Z,16.03
2019-02-17T11:50:15.989Z,17.80
2019-02-17T11:52:44.550Z,17.07
2019-02-17T11:55:14.702Z,15.87
2019-02-17T11:57:43.310Z,15.57
2019-02-17T12:00:22.326Z,17.40
2019-02-17T12:02:50.841Z,16.07
2019-02-17T12:05:19.401Z,17.47
2019-02-17T12:07:47.915Z,16.60
2019-02-17T12:10:16.498Z,15.90
2019-02-17T12:12:45.338Z,16.00
2019-02-17T12:15:14.574Z,17.27
2019-02-17T12:17:43.305Z,16.47
2019-02-17T12:20:24.525Z,16.63
2019-02-17T12:22:54.692Z,17.00
2019-02-17T12:25:24.913Z,16.93
2019-02-17T12:27:55.067Z,15.00
2019-02-17T12:30:23.640Z,16.13
2019-02-17T12:32:52.227Z,16.10
2019-02-17T12:35:20.836Z,17.40
2019-02-17T12:37:49.703Z,16.77
2019-02-17T12:40:18.282Z,16.90
2019-02-17T12:42:47.125Z,16.80
2019-02-17T12:45:18.409Z,16.00
2019-02-17T12:47:55.420Z,18.00
2019-02-17T12:50:17.282Z,15.53
2019-02-17T12:52:47.859Z,16.50
2019-02-17T12:55:16.522Z,16.00
2019-02-17T12:57:45.116Z,16.47
2019-02-17T13:00:16.310Z,14.90
2019-02-17T13:02:45.907Z,16.33
2019-02-17T13:05:14.903Z,15.27
2019-02-17T13:07:43.401Z,17.30
2019-02-17T13:10:12.506Z,16.40
2019-02-17T13:12:41.112Z,15.20
2019-02-17T13:15:11.890Z,16.43
2019-02-17T13:17:40.408Z,16.27
2019-02-17T13:20:11.421Z,15.50
2019-02-17T13:22:40.007Z,14.60
2019-02-17T13:25:13.821Z,13.90
2019-02-17T13:27:43.425Z,14.60
2019-02-17T13:30:17.233Z,15.87
2019-02-17T13:32:45.836Z,15.67
2019-02-17T13:35:15.868Z,14.87
2019-02-17T13:37:44.441Z,14.33
2019-02-17T13:40:14.072Z,13.67
2019-02-17T13:42:42.752Z,14.90
2019-02-17T13:45:13.945Z,14.13
2019-02-17T13:47:42.518Z,15.70
2019-02-17T13:50:15.425Z,14.50
2019-02-17T13:52:44.052Z,14.70
2019-02-17T13:55:12.782Z,14.87
2019-02-17T13:57:41.422Z,14.63
2019-02-17T14:00:15.346Z,14.30
2019-02-17T14:02:44.456Z,14.97
2019-02-17T14:05:13.846Z,14.17
2019-02-17T14:07:42.639Z,14.57
2019-02-17T14:10:12.773Z,15.20
2019-02-17T14:12:41.371Z,14.47
2019-02-17T14:15:14.766Z,15.07
2019-02-17T14:17:43.469Z,15.73
2019-02-17T14:20:12.191Z,15.93
2019-02-17T14:22:40.836Z,14.83
2019-02-17T14:25:11.203Z,15.00
2019-02-17T14:27:40.130Z,13.47
2019-02-17T14:30:15.995Z,14.80
2019-02-17T14:32:44.837Z,16.07
2019-02-17T14:35:13.505Z,14.17
2019-02-17T14:37:42.088Z,14.93
2019-02-17T14:40:14.163Z,15.70
2019-02-17T14:42:42.798Z,16.00
2019-02-17T14:45:15.102Z,14.40
2019-02-17T14:47:45.368Z,14.37
2019-02-17T14:50:15.491Z,15.43
2019-02-17T14:52:44.054Z,15.33
2019-02-17T14:55:13.105Z,15.17
2019-02-17T14:57:41.751Z,14.23
2019-02-17T15:00:20.970Z,14.47
2019-02-17T15:02:49.546Z,13.60
2019-02-17T15:05:18.148Z,14.10
2019-02-17T15:07:47.007Z,12.80
2019-02-17T15:10:15.666Z,11.87
2019-02-17T15:12:45.124Z,11.60
2019-02-17T15:15:15.558Z,11.47
2019-02-17T15:17:44.051Z,11.43
2019-02-17T15:20:15.859Z,11.00
2019-02-17T15:22:44.433Z,10.37
2019-02-17T15:25:13.297Z,10.70
2019-02-17T15:27:43.428Z,11.00
2019-02-17T15:30:14.216Z,10.60
2019-02-17T15:32:42.788Z,10.40
2019-02-17T15:35:12.557Z,11.90
2019-02-17T15:37:41.050Z,11.30
2019-02-17T15:40:12.056Z,11.90
2019-02-17T15:42:42.940Z,11.37
2019-02-17T15:45:13.170Z,12.13
2019-02-17T15:47:41.831Z,11.83
2019-02-17T15:50:12.445Z,11.67
2019-02-17T15:52:41.039Z,12.70
2019-02-17T15:55:13.672Z,13.07
2019-02-17T15:57:42.395Z,12.50
2019-02-17T16:00:18.414Z,13.03
2019-02-17T16:02:48.373Z,12.47
2019-02-17T16:05:17.182Z,12.57
2019-02-17T16:07:47.298Z,12.13
2019-02-17T16:10:16.902Z,11.90
2019-02-17T16:12:45.568Z,12.50
2019-02-17T16:15:16.948Z,12.43
2019-02-17T16:17:45.547Z,12.40
2019-02-17T16:20:14.650Z,13.27
2019-02-17T16:22:43.309Z,12.23
2019-02-17T16:25:12.215Z,12.90
2019-02-17T16:27:40.800Z,11.37
2019-02-17T16:30:22.560Z,12.87
2019-02-17T16:32:51.159Z,12.93
2019-02-17T16:35:19.736Z,11.90
2019-02-17T16:37:48.955Z,13.00
2019-02-17T16:40:18.281Z,12.33
2019-02-17T16:42:47.614Z,11.63
2019-02-17T16:45:17.757Z,13.07
2019-02-17T16:47:46.604Z,13.37
2019-02-17T16:50:23.119Z,12.70
2019-02-17T16:52:51.781Z,12.03
2019-02-17T16:55:20.708Z,11.53
2019-02-17T16:57:49.381Z,11.37
2019-02-17T17:00:25.499Z,12.13
2019-02-17T17:02:55.049Z,11.03
2019-02-17T17:05:24.334Z,12.10
2019-02-17T17:07:53.056Z,12.77
2019-02-17T17:10:21.782Z,12.47
2019-02-17T17:12:50.422Z,12.67
2019-02-17T17:15:19.166Z,11.60
2019-02-17T17:17:48.165Z,12.77
2019-02-17T17:20:22.133Z,14.30
2019-02-17T17:22:50.702Z,15.20
2019-02-17T17:25:20.825Z,13.57
2019-02-17T17:27:49.393Z,14.97
2019-02-17T17:30:19.215Z,16.13
2019-02-17T17:32:48.031Z,13.83
2019-02-17T17:35:16.646Z,13.80
2019-02-17T17:37:45.141Z,15.83
2019-02-17T17:40:16.004Z,15.90
2019-02-17T17:42:44.733Z,15.17
2019-02-17T17:45:18.203Z,15.50
2019-02-17T17:47:46.931Z,15.67
2019-02-17T17:50:16.294Z,15.73
2019-02-17T17:52:45.018Z,16.83
2019-02-17T17:55:14.070Z,15.77
2019-02-17T17:57:42.643Z,15.57
2019-02-17T18:00:16.950Z,15.83
2019-02-17T18:02:45.611Z,16.30
2019-02-17T18:05:15.599Z,16.03
2019-02-17T18:07:44.175Z,15.97
2019-02-17T18:10:17.436Z,16.67
2019-02-17T18:12:47.670Z,16.63
2019-02-17T18:15:18.714Z,17.27
2019-02-17T18:17:53.901Z,16.07
2019-02-17T18:20:17.434Z,15.93
2019-02-17T18:22:46.074Z,17.37
2019-02-17T18:25:15.258Z,18.37
2019-02-17T18:27:43.893Z,17.93
2019-02-17T18:30:17.557Z,17.93
2019-02-17T18:32:48.303Z,17.50
2019-02-17T18:35:20.351Z,17.23
2019-02-17T18:37:47.928Z,17.47
2019-02-17T18:40:18.175Z,18.70
2019-02-17T18:42:46.755Z,17.67
2019-02-17T18:45:16.490Z,17.33
2019-02-17T18:47:45.138Z,18.00
2019-02-17T18:50:17.996Z,18.00
2019-02-17T18:52:46.564Z,17.50
2019-02-17T18:55:15.317Z,17.53
2019-02-17T18:57:50.086Z,18.97
2019-02-17T19:00:20.240Z,19.30
2019-02-17T19:02:48.801Z,19.10
2019-02-17T19:05:20.026Z,20.53
2019-02-17T19:07:49.254Z,23.80
2019-02-17T19:10:17.849Z,26.17
2019-02-17T19:12:46.698Z,26.43
2019-02-17T19:15:16.733Z,26.97
2019-02-17T19:17:45.371Z,28.47
2019-02-17T19:20:26.430Z,29.37
2019-02-17T19:22:54.996Z,31.20
2019-02-17T19:25:23.585Z,31.27
2019-02-17T19:27:52.167Z,25.43
2019-02-17T19:30:20.778Z,26.07
2019-02-17T19:32:51.379Z,29.03
2019-02-17T19:35:21.526Z,30.27
2019-02-17T19:37:50.197Z,29.03
2019-02-17T19:40:18.777Z,28.20
2019-02-17T19:42:47.381Z,25.37
2019-02-17T19:45:20.915Z,22.90
2019-02-17T19:47:51.280Z,23.63
2019-02-17T19:50:19.930Z,22.33
2019-02-17T19:52:48.507Z,20.00
2019-02-17T19:55:17.095Z,19.57
2019-02-17T19:57:45.660Z,16.57
2019-02-17T20:00:16.971Z,18.10
2019-02-17T20:02:47.330Z,17.20
2019-02-17T20:05:24.142Z,15.90
2019-02-17T20:07:53.019Z,16.20
2019-02-17T20:10:21.575Z,15.13
2019-02-17T20:12:51.782Z,14.73
2019-02-17T20:15:21.542Z,14.33
2019-02-17T20:17:50.160Z,14.80
2019-02-17T20:20:18.808Z,14.97
2019-02-17T20:22:47.393Z,14.97
2019-02-17T20:25:15.956Z,14.83
2019-02-17T20:27:44.551Z,15.33
2019-02-17T20:30:15.069Z,15.13
2019-02-17T20:32:43.682Z,14.40
2019-02-17T20:35:12.283Z,15.63
2019-02-17T20:37:41.988Z,15.13
2019-02-17T20:40:13.616Z,15.10
2019-02-17T20:42:42.238Z,14.90
2019-02-17T20:45:12.045Z,16.63
2019-02-17T20:47:43.016Z,15.33
2019-02-17T20:50:13.818Z,16.30
2019-02-17T20:52:43.862Z,16.27
2019-02-17T20:55:13.149Z,16.90
2019-02-17T20:57:42.346Z,16.20
2019-02-17T21:00:24.684Z,16.30
2019-02-17T21:02:53.325Z,19.37
2019-02-17T21:05:23.846Z,20.73
2019-02-17T21:07:53.922Z,21.80
2019-02-17T21:10:22.707Z,20.70
2019-02-17T21:12:51.278Z,19.17
2019-02-17T21:15:21.499Z,17.90
2019-02-17T21:17:50.098Z,16.60
2019-02-17T21:20:19.515Z,17.10
2019-02-17T21:22:49.734Z,16.50
2019-02-17T21:25:18.269Z,15.67
2019-02-17T21:27:47.468Z,15.87
2019-02-17T21:30:19.724Z,13.90
2019-02-17T21:32:48.662Z,13.97
2019-02-17T21:35:17.592Z,13.80
2019-02-17T21:37:47.075Z,14.03
2019-02-17T21:40:15.922Z,13.20
2019-02-17T21:42:44.601Z,14.13
2019-02-17T21:45:17.969Z,14.23
2019-02-17T21:47:47.083Z,13.83
2019-02-17T21:50:16.071Z,13.43
2019-02-17T21:52:47.692Z,13.90
2019-02-17T21:55:16.419Z,14.73
2019-02-17T21:57:45.024Z,14.17
2019-02-17T22:00:21.213Z,13.70
2019-02-17T22:02:50.054Z,13.90
2019-02-17T22:05:19.501Z,13.30
2019-02-17T22:07:48.173Z,13.40
2019-02-17T22:10:20.347Z,12.43
2019-02-17T22:12:51.082Z,13.33
2019-02-17T22:15:20.652Z,12.97
2019-02-17T22:17:49.244Z,13.00
2019-02-17T22:20:18.414Z,13.27
2019-02-17T22:22:46.932Z,12.47
2019-02-17T22:25:18.752Z,13.13
2019-02-17T22:27:47.897Z,13.07
2019-02-17T22:30:16.549Z,13.10
2019-02-17T22:32:45.118Z,12.93
2019-02-17T22:35:13.861Z,13.00
2019-02-17T22:37:42.427Z,13.07
2019-02-17T22:40:12.880Z,13.33
2019-02-17T22:42:42.698Z,13.27
2019-02-17T22:45:12.084Z,13.37
2019-02-17T22:47:40.789Z,13.97
2019-02-17T22:50:16.757Z,13.67
2019-02-17T22:52:45.592Z,14.13
2019-02-17T22:55:14.633Z,13.30
2019-02-17T22:57:43.300Z,13.17
2019-02-17T23:00:45.710Z,13.23
2019-02-17T23:03:16.279Z,12.53
2019-02-17T23:05:45.692Z,13.07
2019-02-17T23:08:14.585Z,12.27
2019-02-17T23:10:44.218Z,13.00
2019-02-17T23:13:13.348Z,13.70
2019-02-17T23:15:43.449Z,15.50
2019-02-17T23:18:13.686Z,13.70
2019-02-17T23:20:42.296Z,13.50
2019-02-17T23:23:11.011Z,12.23
2019-02-17T23:25:39.588Z,13.20
2019-02-17T23:28:08.730Z,12.97
2019-02-17T23:30:37.338Z,13.40
2019-02-17T23:33:07.385Z,12.07
2019-02-17T23:35:36.973Z,12.70
2019-02-17T23:38:05.469Z,13.00
2019-02-17T23:40:34.122Z,12.03
2019-02-17T23:43:02.725Z,11.53
2019-02-17T23:45:31.278Z,11.40
2019-02-17T23:47:59.866Z,11.73
2019-02-17T23:50:29.038Z,11.43
2019-02-17T23:52:57.743Z,11.60
2019-02-17T23:55:28.124Z,12.10
2019-02-17T23:57:56.689Z,12.37
